createdAt,value
2018-09-21T00:00:47.597Z,4.20
2018-09-21T00:03:20.112Z,4.63
2018-09-21T00:05:53.372Z,4.60
2018-09-21T00:08:26.174Z,5.10
2018-09-21T00:10:59.097Z,6.30
2018-09-21T00:17:02.622Z,9.07
2018-09-21T00:22:56.572Z,5.90
2018-09-21T00:25:30.233Z,5.63
2018-09-21T00:28:02.615Z,6.17
2018-09-21T00:30:36.092Z,6.90
2018-09-21T00:33:10.711Z,6.67
2018-09-21T00:35:45.109Z,6.57
2018-09-21T00:38:19.375Z,6.40
2018-09-21T00:40:53.317Z,6.43
2018-09-21T00:43:27.011Z,7.40
2018-09-21T00:46:01.939Z,7.97
2018-09-21T00:48:35.457Z,6.93
2018-09-21T00:54:38.910Z,5.70
2018-09-21T00:57:12.571Z,5.53
2018-09-21T00:59:45.837Z,6.00
2018-09-21T01:02:19.014Z,5.30
2018-09-21T01:04:51.702Z,6.23
2018-09-21T01:07:26.688Z,5.97
2018-09-21T01:09:59.386Z,6.33
2018-09-21T01:12:33.565Z,5.80
2018-09-21T01:15:06.609Z,6.50
2018-09-21T01:17:46.164Z,6.50
2018-09-21T01:20:43.910Z,7.10
2018-09-21T01:23:17.227Z,8.83
2018-09-21T01:25:50.024Z,9.20
2018-09-21T01:28:22.415Z,8.47
2018-09-21T01:31:01.997Z,10.03
2018-09-21T01:33:37.053Z,7.60
2018-09-21T01:36:09.842Z,8.23
2018-09-21T01:38:43.752Z,6.83
2018-09-21T01:41:17.666Z,9.03
2018-09-21T01:43:53.909Z,7.17
2018-09-21T01:46:27.119Z,7.47
2018-09-21T01:49:00.357Z,8.27
2018-09-21T01:51:33.489Z,8.23
2018-09-21T01:54:05.922Z,8.83
2018-09-21T01:56:38.710Z,7.63
2018-09-21T01:59:11.439Z,7.03
2018-09-21T02:01:47.522Z,6.83
2018-09-21T02:04:21.260Z,7.07
2018-09-21T02:06:54.628Z,7.20
2018-09-21T02:09:27.403Z,6.87
2018-09-21T02:12:00.125Z,7.07
2018-09-21T02:14:32.673Z,7.13
2018-09-21T02:17:05.472Z,7.63
2018-09-21T02:19:39.217Z,7.43
2018-09-21T02:22:11.696Z,7.90
2018-09-21T02:24:44.725Z,7.77
2018-09-21T02:27:19.330Z,8.33
2018-09-21T02:29:52.106Z,6.87
2018-09-21T02:32:24.643Z,7.73
2018-09-21T02:34:58.172Z,7.30
2018-09-21T02:37:30.826Z,7.03
2018-09-21T02:40:05.641Z,8.50
2018-09-21T02:42:39.420Z,7.80
2018-09-21T02:45:13.376Z,7.57
2018-09-21T02:47:46.303Z,5.33
2018-09-21T02:50:19.606Z,2.90
2018-09-21T02:52:52.791Z,3.93
2018-09-21T02:58:48.536Z,3.23
2018-09-21T03:01:22.150Z,4.13
2018-09-21T03:03:54.595Z,3.40
2018-09-21T03:06:27.604Z,2.10
2018-09-21T03:09:01.135Z,2.93
2018-09-21T03:11:34.745Z,3.23
2018-09-21T03:14:10.067Z,2.73
2018-09-21T03:16:43.091Z,2.40
2018-09-21T03:19:15.702Z,2.10
2018-09-21T03:21:50.141Z,2.57
2018-09-21T03:24:22.807Z,1.87
2018-09-21T03:26:55.750Z,2.67
2018-09-21T03:29:28.715Z,3.47
2018-09-21T03:32:01.682Z,3.83
2018-09-21T03:34:35.278Z,3.70
2018-09-21T03:37:09.982Z,2.50
2018-09-21T03:39:43.630Z,3.17
2018-09-21T03:42:19.506Z,3.20
2018-09-21T03:44:52.170Z,2.80
2018-09-21T03:47:24.944Z,3.43
2018-09-21T03:49:57.657Z,3.53
2018-09-21T03:52:30.276Z,3.30
2018-09-21T03:55:03.370Z,2.77
2018-09-21T03:57:36.148Z,3.33
2018-09-21T04:00:12.962Z,3.77
2018-09-21T04:02:45.726Z,15.80
2018-09-21T04:05:18.928Z,6.00
2018-09-21T04:07:51.847Z,51.93
2018-09-21T04:10:28.676Z,59.73
2018-09-21T04:13:01.834Z,27.97
2018-09-21T04:15:35.135Z,14.03
2018-09-21T04:21:39.692Z,9.40
2018-09-21T04:24:12.547Z,5.70
2018-09-21T04:26:45.926Z,3.30
2018-09-21T04:29:18.362Z,3.73
2018-09-21T04:31:51.422Z,3.37
2018-09-21T04:34:24.803Z,3.00
2018-09-21T04:36:57.393Z,3.00
2018-09-21T04:39:30.136Z,2.53
2018-09-21T04:42:02.944Z,6.73
2018-09-21T04:44:35.556Z,36.83
2018-09-21T04:47:08.809Z,110.37
2018-09-21T04:53:13.095Z,103.07
2018-09-21T04:55:45.968Z,51.30
2018-09-21T04:58:19.105Z,16.47
2018-09-21T05:00:52.144Z,3.80
2018-09-21T05:03:25.752Z,2.07
2018-09-21T05:05:58.734Z,2.30
2018-09-21T05:11:52.757Z,1.83
2018-09-21T05:14:25.657Z,1.87
2018-09-21T05:16:58.620Z,1.60
2018-09-21T05:19:31.119Z,2.30
2018-09-21T05:22:04.094Z,1.83
2018-09-21T05:24:37.401Z,2.40
2018-09-21T05:30:32.082Z,2.30
2018-09-21T05:33:49.143Z,1.77
2018-09-21T05:36:22.246Z,2.10
2018-09-21T05:38:55.134Z,2.30
2018-09-21T05:44:16.911Z,8.10
2018-09-21T05:46:49.520Z,4.00
2018-09-21T05:52:43.947Z,2.83
2018-09-21T05:55:17.184Z,2.90
2018-09-21T05:57:50.090Z,2.47
2018-09-21T06:00:23.244Z,2.00
2018-09-21T06:02:56.316Z,2.10
2018-09-21T06:05:29.472Z,2.80
2018-09-21T06:08:02.695Z,2.83
2018-09-21T06:10:35.765Z,6.87
2018-09-21T06:13:08.811Z,13.20
2018-09-21T06:15:41.628Z,6.47
2018-09-21T06:18:14.409Z,6.23
2018-09-21T06:21:28.107Z,3.53
2018-09-21T06:24:03.479Z,2.90
2018-09-21T06:26:36.806Z,1.80
2018-09-21T06:29:10.311Z,1.80
2018-09-21T06:31:44.055Z,1.10
2018-09-21T06:34:17.240Z,1.47
2018-09-21T06:36:50.938Z,1.20
2018-09-21T06:39:24.361Z,1.30
2018-09-21T06:41:58.036Z,2.20
2018-09-21T06:47:53.309Z,1.40
2018-09-21T06:50:26.738Z,1.20
2018-09-21T06:53:00.131Z,1.93
2018-09-21T06:55:33.819Z,1.90
2018-09-21T06:58:07.723Z,2.40
2018-09-21T07:00:41.003Z,2.60
2018-09-21T07:03:14.522Z,2.50
2018-09-21T07:05:47.978Z,2.43
2018-09-21T07:08:21.874Z,1.90
2018-09-21T07:10:55.372Z,2.00
2018-09-21T07:13:29.162Z,1.70
2018-09-21T07:16:02.463Z,2.10
2018-09-21T07:18:37.437Z,1.77
2018-09-21T07:21:10.826Z,1.33
2018-09-21T07:23:45.414Z,1.20
2018-09-21T07:26:19.069Z,1.20
2018-09-21T07:28:52.682Z,1.10
2018-09-21T07:31:26.547Z,1.80
2018-09-21T07:34:00.024Z,1.50
2018-09-21T07:36:33.365Z,1.37
2018-09-21T07:39:08.619Z,1.20
2018-09-21T07:41:41.919Z,2.23
2018-09-21T07:44:15.112Z,2.40
2018-09-21T07:46:49.224Z,3.10
2018-09-21T07:49:22.587Z,4.33
2018-09-21T07:51:56.267Z,5.93
2018-09-21T07:54:29.696Z,8.43
2018-09-21T07:57:03.527Z,22.37
2018-09-21T07:59:36.940Z,39.53
2018-09-21T08:02:10.564Z,45.60
2018-09-21T08:04:43.759Z,64.27
2018-09-21T08:07:18.222Z,73.73
2018-09-21T08:09:51.829Z,75.80
2018-09-21T08:12:25.160Z,71.80
2018-09-21T08:18:29.287Z,5.33
2018-09-21T08:21:02.163Z,4.60
2018-09-21T08:23:35.147Z,3.60
2018-09-21T08:26:08.151Z,3.00
2018-09-21T08:28:43.392Z,3.00
2018-09-21T08:31:16.344Z,3.70
2018-09-21T08:33:49.306Z,3.27
2018-09-21T08:36:22.531Z,3.47
2018-09-21T08:38:55.585Z,4.23
2018-09-21T08:41:28.544Z,5.23
2018-09-21T08:44:06.613Z,5.60
2018-09-21T08:46:42.240Z,5.77
2018-09-21T08:49:19.007Z,5.70
2018-09-21T08:51:51.889Z,6.47
2018-09-21T08:54:24.804Z,6.20
2018-09-21T08:57:28.131Z,5.80
2018-09-21T09:00:00.916Z,5.23
2018-09-21T09:02:33.689Z,5.77
2018-09-21T09:05:06.832Z,7.80
2018-09-21T09:07:40.062Z,8.23
2018-09-21T09:10:12.930Z,8.03
2018-09-21T09:12:45.793Z,7.67
2018-09-21T09:15:20.387Z,6.10
2018-09-21T09:17:53.679Z,6.53
2018-09-21T09:20:26.347Z,7.10
2018-09-21T09:22:59.406Z,6.00
2018-09-21T09:25:32.705Z,6.80
2018-09-21T09:28:06.316Z,6.27
2018-09-21T09:30:39.174Z,5.97
2018-09-21T09:33:12.495Z,5.93
2018-09-21T09:35:45.443Z,5.37
2018-09-21T09:38:18.323Z,4.50
2018-09-21T09:40:52.858Z,5.67
2018-09-21T09:43:26.299Z,5.77
2018-09-21T09:45:59.172Z,5.50
2018-09-21T09:48:32.626Z,5.97
2018-09-21T09:51:06.228Z,6.03
2018-09-21T09:53:39.174Z,5.53
2018-09-21T09:56:11.935Z,5.73
2018-09-21T09:58:45.124Z,5.53
2018-09-21T10:01:18.109Z,4.30
2018-09-21T10:03:50.913Z,4.23
2018-09-21T10:06:24.084Z,3.80
2018-09-21T10:08:57.195Z,5.07
2018-09-21T10:11:30.014Z,7.00
2018-09-21T10:14:03.407Z,7.10
2018-09-21T10:16:36.333Z,7.10
2018-09-21T10:19:09.543Z,5.90
2018-09-21T10:21:42.402Z,4.87
2018-09-21T10:24:15.475Z,5.43
2018-09-21T10:26:48.472Z,5.03
2018-09-21T10:29:21.959Z,4.87
2018-09-21T10:31:54.527Z,5.47
2018-09-21T10:34:27.336Z,5.17
2018-09-21T10:37:00.261Z,5.07
2018-09-21T10:39:33.757Z,5.90
2018-09-21T10:42:06.523Z,6.83
2018-09-21T10:44:40.019Z,4.80
2018-09-21T10:47:12.947Z,3.37
2018-09-21T10:49:46.043Z,3.83
2018-09-21T10:52:19.780Z,4.23
2018-09-21T10:54:52.751Z,3.37
2018-09-21T10:57:25.745Z,3.50
2018-09-21T10:59:59.250Z,2.60
2018-09-21T11:02:32.687Z,2.30
2018-09-21T11:05:05.511Z,2.77
2018-09-21T11:07:38.470Z,3.77
2018-09-21T11:10:11.138Z,2.50
2018-09-21T11:12:43.891Z,2.30
2018-09-21T11:15:16.945Z,2.27
2018-09-21T11:17:49.841Z,1.97
2018-09-21T11:20:22.884Z,2.13
2018-09-21T11:22:55.920Z,2.30
2018-09-21T11:25:28.687Z,2.17
2018-09-21T11:28:02.255Z,1.93
2018-09-21T11:30:35.080Z,3.50
2018-09-21T11:33:08.134Z,2.70
2018-09-21T11:35:42.203Z,2.87
2018-09-21T11:38:15.777Z,2.63
2018-09-21T11:40:48.664Z,2.50
2018-09-21T11:43:21.635Z,3.77
2018-09-21T11:45:54.556Z,3.37
2018-09-21T11:48:28.223Z,3.23
2018-09-21T11:51:01.063Z,2.70
2018-09-21T11:53:34.271Z,3.33
2018-09-21T11:56:07.845Z,3.17
2018-09-21T11:58:40.891Z,4.00
2018-09-21T12:01:13.895Z,6.63
2018-09-21T12:03:46.824Z,8.07
2018-09-21T12:06:20.103Z,9.37
2018-09-21T12:08:53.216Z,5.27
2018-09-21T12:11:27.056Z,5.27
2018-09-21T12:14:00.074Z,7.47
2018-09-21T12:16:33.249Z,6.83
2018-09-21T12:19:07.232Z,6.13
2018-09-21T12:21:40.056Z,4.90
2018-09-21T12:24:13.507Z,10.50
2018-09-21T12:26:46.703Z,12.43
2018-09-21T12:29:20.203Z,15.03
2018-09-21T12:31:53.260Z,10.27
2018-09-21T12:34:26.535Z,24.33
2018-09-21T12:37:02.729Z,22.70
2018-09-21T12:39:40.945Z,26.40
2018-09-21T12:42:18.851Z,21.47
2018-09-21T12:44:51.808Z,16.87
2018-09-21T12:47:24.715Z,15.03
2018-09-21T12:49:58.266Z,17.83
2018-09-21T12:52:31.219Z,13.10
2018-09-21T12:55:04.195Z,11.10
2018-09-21T12:57:37.308Z,8.07
2018-09-21T13:00:11.900Z,7.53
2018-09-21T13:02:45.078Z,4.07
2018-09-21T13:05:18.113Z,7.13
2018-09-21T13:07:51.811Z,8.40
2018-09-21T13:10:24.968Z,10.07
2018-09-21T13:12:58.672Z,8.87
2018-09-21T13:15:33.321Z,7.47
2018-09-21T13:18:06.660Z,6.27
2018-09-21T13:20:39.611Z,6.63
2018-09-21T13:23:12.683Z,11.83
2018-09-21T13:25:46.060Z,7.87
2018-09-21T13:28:19.015Z,5.37
2018-09-21T13:30:51.715Z,5.87
2018-09-21T13:33:24.693Z,6.40
2018-09-21T13:35:57.712Z,3.97
2018-09-21T13:38:30.497Z,4.80
2018-09-21T13:41:03.362Z,3.60
2018-09-21T13:43:36.236Z,4.20
2018-09-21T13:46:09.329Z,4.37
2018-09-21T13:48:42.144Z,5.03
2018-09-21T13:51:15.270Z,4.97
2018-09-21T13:53:49.360Z,4.67
2018-09-21T13:56:22.253Z,4.27
2018-09-21T14:02:51.370Z,4.27
2018-09-21T14:05:24.519Z,4.50
2018-09-21T14:07:57.654Z,4.27
2018-09-21T14:10:31.009Z,3.10
2018-09-21T14:13:05.111Z,3.53
2018-09-21T14:15:38.092Z,4.60
2018-09-21T14:18:11.328Z,4.80
2018-09-21T14:20:44.589Z,5.20
2018-09-21T14:23:17.552Z,3.43
2018-09-21T14:25:50.453Z,4.57
2018-09-21T14:28:25.216Z,3.13
2018-09-21T14:30:58.329Z,3.67
2018-09-21T14:33:31.566Z,4.90
2018-09-21T14:36:04.733Z,3.23
2018-09-21T14:38:37.936Z,3.50
2018-09-21T14:41:12.258Z,2.13
2018-09-21T14:43:52.020Z,4.40
2018-09-21T14:46:25.688Z,18.57
2018-09-21T14:48:59.072Z,4.07
2018-09-21T14:52:12.822Z,9.40
2018-09-21T14:54:46.087Z,5.10
2018-09-21T14:57:19.754Z,2.42
2018-09-21T14:59:53.019Z,3.43
2018-09-21T15:02:26.308Z,3.52
2018-09-21T15:05:01.674Z,4.00
2018-09-21T15:07:37.610Z,6.50
2018-09-21T15:10:13.357Z,3.02
2018-09-21T15:12:48.012Z,3.02
2018-09-21T15:15:21.121Z,3.25
2018-09-21T15:18:01.012Z,2.83
2018-09-21T15:20:41.398Z,3.05
2018-09-21T15:23:20.225Z,3.05
2018-09-21T15:25:57.973Z,2.40
2018-09-21T15:28:35.184Z,2.17
2018-09-21T15:31:13.343Z,2.30
2018-09-21T15:33:52.831Z,3.75
2018-09-21T15:36:35.328Z,1.80
2018-09-21T15:39:12.817Z,2.40
2018-09-21T15:42:32.443Z,1.90
2018-09-21T15:45:11.024Z,3.30
2018-09-21T15:47:50.866Z,4.65
2018-09-21T15:50:27.548Z,6.03
2018-09-21T15:53:00.734Z,5.42
2018-09-21T15:55:37.462Z,3.00
2018-09-21T15:58:14.219Z,3.47
2018-09-21T16:00:49.868Z,2.30
2018-09-21T16:03:25.963Z,2.08
2018-09-21T16:06:02.950Z,1.98
2018-09-21T16:08:41.081Z,1.20
2018-09-21T16:11:16.366Z,1.75
2018-09-21T16:13:54.844Z,1.98
2018-09-21T16:16:30.397Z,3.45
2018-09-21T16:19:06.116Z,3.72
2018-09-21T16:21:43.571Z,2.17
2018-09-21T16:24:23.473Z,2.00
2018-09-21T16:27:02.155Z,2.20
2018-09-21T16:29:40.043Z,1.70
2018-09-21T16:32:17.191Z,1.67
2018-09-21T16:34:50.225Z,1.75
2018-09-21T16:40:06.064Z,2.42
2018-09-21T16:46:00.647Z,2.50
2018-09-21T16:48:39.319Z,2.70
2018-09-21T16:51:16.166Z,2.17
2018-09-21T16:53:52.298Z,2.83
2018-09-21T16:56:32.763Z,2.10
2018-09-21T16:59:11.449Z,1.98
2018-09-21T17:01:50.352Z,2.58
2018-09-21T17:04:24.885Z,2.00
2018-09-21T17:07:01.203Z,1.90
2018-09-21T17:09:36.973Z,2.30
2018-09-21T17:12:14.049Z,2.50
2018-09-21T17:18:23.078Z,1.75
2018-09-21T17:20:59.253Z,1.92
2018-09-21T17:23:36.282Z,1.95
2018-09-21T17:26:12.065Z,1.82
2018-09-21T17:28:49.405Z,2.58
2018-09-21T17:31:25.280Z,2.30
2018-09-21T17:34:04.645Z,2.50
2018-09-21T17:36:39.333Z,3.10
2018-09-21T17:39:17.114Z,3.90
2018-09-21T17:41:53.323Z,4.08
2018-09-21T17:44:29.965Z,2.60
2018-09-21T17:47:09.538Z,3.47
2018-09-21T17:49:45.695Z,2.52
2018-09-21T17:52:25.068Z,2.65
2018-09-21T17:55:05.599Z,2.22
2018-09-21T17:57:42.242Z,2.80
2018-09-21T18:00:15.467Z,3.65
2018-09-21T18:02:52.634Z,3.02
2018-09-21T18:05:35.035Z,7.03
2018-09-21T18:08:11.670Z,6.55
2018-09-21T18:10:45.561Z,4.95
2018-09-21T18:13:19.229Z,6.10
2018-09-21T18:15:52.603Z,4.97
2018-09-21T18:18:27.526Z,1.77
2018-09-21T18:21:01.103Z,2.30
2018-09-21T18:23:34.614Z,6.60
2018-09-21T18:26:09.733Z,4.33
2018-09-21T18:28:57.885Z,6.70
2018-09-21T18:31:31.724Z,3.70
2018-09-21T18:34:19.837Z,5.15
2018-09-21T18:37:06.497Z,2.77
2018-09-21T18:39:59.568Z,2.45
2018-09-21T18:42:49.427Z,6.37
2018-09-21T18:45:44.790Z,6.20
2018-09-21T18:48:39.986Z,5.78
2018-09-21T18:51:28.225Z,4.35
2018-09-21T18:54:23.878Z,3.00
2018-09-21T18:57:17.954Z,2.77
2018-09-21T19:00:11.569Z,3.72
2018-09-21T19:06:06.129Z,3.35
2018-09-21T19:09:00.320Z,3.33
2018-09-21T19:11:54.854Z,4.15
2018-09-21T19:14:47.403Z,2.40
2018-09-21T19:17:44.059Z,3.05
2018-09-21T19:20:22.976Z,5.72
2018-09-21T19:23:02.050Z,4.25
2018-09-21T19:25:34.523Z,4.43
2018-09-21T19:28:07.010Z,3.15
2018-09-21T19:30:40.700Z,3.35
2018-09-21T19:33:15.220Z,3.00
2018-09-21T19:35:47.805Z,2.45
2018-09-21T19:38:19.997Z,3.30
2018-09-21T19:40:52.492Z,2.62
2018-09-21T19:43:24.755Z,2.90
2018-09-21T19:45:57.645Z,3.05
2018-09-21T19:48:29.887Z,2.30
2018-09-21T19:51:02.401Z,2.22
2018-09-21T19:53:34.696Z,2.27
2018-09-21T19:56:08.557Z,2.62
2018-09-21T19:58:40.991Z,2.60
2018-09-21T20:01:14.566Z,2.12
2018-09-21T20:03:46.814Z,2.93
2018-09-21T20:06:19.429Z,3.47
2018-09-21T20:08:51.648Z,2.50
2018-09-21T20:11:24.670Z,2.50
2018-09-21T20:13:58.420Z,2.72
2018-09-21T20:16:30.843Z,1.47
2018-09-21T20:19:03.172Z,3.00
2018-09-21T20:21:36.225Z,3.33
2018-09-21T20:24:09.801Z,3.00
2018-09-21T20:26:42.884Z,3.33
2018-09-21T20:29:17.551Z,2.62
2018-09-21T20:31:54.766Z,2.70
2018-09-21T20:34:27.040Z,2.20
2018-09-21T20:37:00.000Z,2.73
2018-09-21T20:39:32.221Z,3.30
2018-09-21T20:45:26.105Z,3.20
2018-09-21T20:47:58.624Z,2.58
2018-09-21T20:50:31.410Z,2.40
2018-09-21T20:53:04.201Z,3.08
2018-09-21T20:55:36.919Z,2.75
2018-09-21T20:58:09.652Z,3.08
2018-09-21T21:00:41.913Z,2.90
2018-09-21T21:03:15.665Z,3.10
2018-09-21T21:05:48.330Z,2.50
2018-09-21T21:08:21.631Z,2.02
2018-09-21T21:10:54.669Z,2.33
2018-09-21T21:13:29.801Z,2.30
2018-09-21T21:16:02.954Z,2.40
2018-09-21T21:18:35.808Z,2.80
2018-09-21T21:21:17.233Z,2.10
2018-09-21T21:23:54.180Z,1.97
2018-09-21T21:26:30.738Z,4.23
2018-09-21T21:29:12.914Z,3.00
2018-09-21T21:32:02.824Z,2.73
2018-09-21T21:34:35.698Z,4.30
2018-09-21T21:37:10.833Z,2.63
2018-09-21T21:39:43.006Z,2.50
2018-09-21T21:42:15.525Z,2.50
2018-09-21T21:44:48.551Z,3.10
2018-09-21T21:47:23.472Z,2.47
2018-09-21T21:49:56.691Z,2.30
2018-09-21T21:52:29.446Z,3.05
2018-09-21T21:55:04.569Z,2.17
2018-09-21T21:57:38.725Z,2.93
2018-09-21T22:00:12.525Z,2.00
2018-09-21T22:02:44.787Z,2.53
2018-09-21T22:05:18.263Z,2.80
2018-09-21T22:07:51.239Z,3.83
2018-09-21T22:10:23.935Z,2.75
2018-09-21T22:13:00.981Z,3.27
2018-09-21T22:15:33.791Z,3.10
2018-09-21T22:18:06.532Z,2.45
2018-09-21T22:20:39.142Z,2.83
2018-09-21T22:23:12.009Z,2.62
2018-09-21T22:25:44.507Z,2.75
2018-09-21T22:28:18.220Z,2.97
2018-09-21T22:30:52.214Z,2.17
2018-09-21T22:33:25.986Z,2.72
2018-09-21T22:35:59.214Z,2.37
2018-09-21T22:38:35.088Z,3.07
2018-09-21T22:41:16.138Z,2.87
2018-09-21T22:43:48.514Z,2.53
2018-09-21T22:46:20.901Z,2.73
2018-09-21T22:48:54.321Z,2.50
2018-09-21T22:51:27.355Z,2.40
2018-09-21T22:54:00.091Z,2.97
2018-09-21T22:56:33.443Z,3.40
2018-09-21T22:59:06.122Z,3.43
2018-09-21T23:01:38.910Z,3.13
2018-09-21T23:04:11.110Z,3.00
2018-09-21T23:06:43.569Z,3.50
2018-09-21T23:09:16.120Z,3.17
2018-09-21T23:11:49.299Z,3.00
2018-09-21T23:14:22.064Z,2.40
2018-09-21T23:16:55.266Z,3.57
2018-09-21T23:19:27.978Z,4.23
2018-09-21T23:22:00.647Z,3.77
2018-09-21T23:24:33.708Z,3.67
2018-09-21T23:27:06.334Z,3.77
2018-09-21T23:29:39.613Z,4.50
2018-09-21T23:32:12.354Z,3.80
2018-09-21T23:34:45.212Z,3.63
2018-09-21T23:37:17.842Z,4.40
2018-09-21T23:39:51.233Z,3.03
2018-09-21T23:42:24.020Z,2.77
2018-09-21T23:44:56.736Z,3.00
2018-09-21T23:47:29.690Z,4.23
2018-09-21T23:50:02.285Z,4.43
2018-09-21T23:52:35.480Z,3.67
2018-09-21T23:55:08.627Z,3.50
2018-09-21T23:57:41.366Z,3.87
